KTEW

Mason Jewett Field Airport

Mason, Michigan, USA
METAR KTEW 141155Z AUTO 00000KT 1 3/4SM -RA OVC010 03/03 A3014 RMK AO2 T00300026 10031 20016
Observed Flight Rules
Dec-14 @ 11:55 UTC (29 minutes ago) Instrument Flight Rules
Visibility Clouds Conditions
1 3/4 miles
  • Overcast at 1,000' AGL
  • Light Rain
Temperatures Readings
Current 3°C / 37°F
Dewpoint 3°C / 37°F
Humidity 100%
Altimeter 30.14" Hg
Pressure 1021 hPa
Elevation 280
METAR KTEW 141155Z AUTO 00000KT 1 3/4SM -RA OVC010 03/03 A3014 RMK AO2 T00300026 10031 20016
Observed Flight Rules
Dec-14 @ 11:55 UTC
(29 minutes ago)
IFR
Clouds
  • Overcast at 1,000' AGL
Conditions
  • Light Rain
Temperature Dewpoint
3°C / 37°F 3°C / 37°F
Humidity Altimeter Pressure
100% 30.14" Hg 1021 hPa